Time;durP1;ratioP1;P1;durP2;ratioP2;P2;SDS_P1;SDS_P2;PMS_P1;PMS_P2;Temp;Humidity;BMP_temperature;BMP_pressure;BME280_temperature;BME280_humidity;BME280_pressure;Samples;Min_cycle;Max_cycle;Signal;HPM_P1;HPM_P2
2023/08/18 00:01:14;;;;;;;6.77;4.80;;;19.60;99.90;;;;;;5091345;28;21199;-66
2023/08/18 00:03:42;;;;;;;5.73;5.13;;;19.70;99.90;;;;;;5090308;28;20469;-67
2023/08/18 00:06:10;;;;;;;5.67;4.93;;;19.60;99.90;;;;;;5091198;28;20549;-66
2023/08/18 00:08:39;;;;;;;6.07;5.00;;;19.70;99.90;;;;;;5091279;28;20451;-67
2023/08/18 00:11:08;;;;;;;7.23;5.50;;;19.70;99.90;;;;;;5091241;28;20441;-67
2023/08/18 00:13:36;;;;;;;5.80;5.00;;;19.70;99.90;;;;;;5090191;28;20441;-66
2023/08/18 00:16:04;;;;;;;7.87;5.40;;;19.70;99.90;;;;;;5091029;28;20458;-66
2023/08/18 00:18:32;;;;;;;6.00;5.40;;;19.60;99.90;;;;;;5091063;28;20442;-67
2023/08/18 00:21:00;;;;;;;7.67;5.27;;;19.50;99.90;;;;;;5090858;28;20534;-66
2023/08/18 00:23:28;;;;;;;9.53;5.63;;;19.50;99.90;;;;;;5089748;28;20551;-66
2023/08/18 00:25:57;;;;;;;9.10;5.10;;;19.40;99.90;;;;;;5090931;28;20468;-66
2023/08/18 00:28:25;;;;;;;7.67;5.57;;;19.20;99.90;;;;;;5090824;28;20492;-67
2023/08/18 00:30:53;;;;;;;7.07;5.33;;;19.10;99.90;;;;;;5090656;28;20449;-67
2023/08/18 00:33:21;;;;;;;6.10;5.50;;;19.10;99.90;;;;;;5090052;28;20442;-67
2023/08/18 00:35:49;;;;;;;7.50;5.67;;;19.00;99.90;;;;;;5091037;28;20466;-67
2023/08/18 00:38:17;;;;;;;6.10;5.27;;;18.90;99.90;;;;;;5091023;28;20892;-67
2023/08/18 00:40:45;;;;;;;6.43;5.47;;;18.90;99.90;;;;;;5090994;28;20442;-67
2023/08/18 00:43:14;;;;;;;6.37;5.57;;;18.90;99.90;;;;;;5090067;28;20930;-66
2023/08/18 00:45:43;;;;;;;7.57;6.07;;;18.80;99.90;;;;;;5091269;28;20880;-67
2023/08/18 00:48:11;;;;;;;8.57;6.03;;;18.70;99.90;;;;;;5090824;28;20439;-67
2023/08/18 00:50:40;;;;;;;6.73;6.00;;;18.70;99.90;;;;;;5090644;28;20446;-67
2023/08/18 00:53:08;;;;;;;7.80;5.87;;;18.70;99.90;;;;;;5089090;28;20521;-67
2023/08/18 00:55:36;;;;;;;6.47;5.90;;;18.70;99.90;;;;;;5090224;28;20488;-67
2023/08/18 00:58:04;;;;;;;6.20;5.60;;;18.70;99.90;;;;;;5090358;28;20947;-67
2023/08/18 01:00:34;;;;;;;6.83;6.23;;;18.60;99.90;;;;;;5090473;28;20466;-67
2023/08/18 01:03:04;;;;;;;7.93;6.20;;;18.50;99.90;;;;;;5089232;28;20933;-67
2023/08/18 01:05:32;;;;;;;8.67;7.03;;;18.60;99.90;;;;;;5089912;28;20995;-67
2023/08/18 01:08:01;;;;;;;6.63;5.90;;;18.50;99.90;;;;;;5090097;28;20849;-67
2023/08/18 01:10:32;;;;;;;7.50;5.57;;;18.40;99.90;;;;;;5090070;28;20515;-66
2023/08/18 01:13:11;;;;;;;7.13;6.30;;;18.50;99.90;;;;;;5089173;28;20555;-66
2023/08/18 01:15:45;;;;;;;6.40;5.50;;;18.40;99.90;;;;;;5090239;28;20545;-67
2023/08/18 01:18:14;;;;;;;7.03;5.70;;;18.40;99.90;;;;;;5090039;28;20504;-66
2023/08/18 01:20:42;;;;;;;6.63;5.93;;;18.40;99.90;;;;;;5089650;28;20445;-66
2023/08/18 01:23:12;;;;;;;8.77;6.50;;;18.30;99.90;;;;;;5089090;28;20478;-67
2023/08/18 01:25:40;;;;;;;8.33;6.60;;;18.20;99.90;;;;;;5090014;28;20486;-66
2023/08/18 01:28:08;;;;;;;8.87;6.70;;;18.20;99.90;;;;;;5090003;28;20449;-67
2023/08/18 01:30:42;;;;;;;6.83;6.23;;;18.20;99.90;;;;;;5089959;28;20449;-67
2023/08/18 01:33:17;;;;;;;6.53;5.83;;;18.10;99.90;;;;;;5088943;28;20426;-66
2023/08/18 01:35:46;;;;;;;6.23;5.30;;;18.30;99.90;;;;;;5089672;28;20490;-66
2023/08/18 01:38:16;;;;;;;9.07;6.13;;;18.30;99.90;;;;;;5089368;28;20449;-66
2023/08/18 01:40:47;;;;;;;6.70;5.87;;;18.20;99.90;;;;;;5089633;28;20452;-67
2023/08/18 01:43:15;;;;;;;7.30;6.10;;;18.30;99.90;;;;;;5087900;28;20815;-67
2023/08/18 01:45:43;;;;;;;8.17;6.10;;;18.30;99.90;;;;;;5089474;28;20987;-67
2023/08/18 01:48:11;;;;;;;6.73;5.67;;;18.20;99.90;;;;;;5089741;28;20444;-66
2023/08/18 01:50:39;;;;;;;5.83;5.30;;;18.20;99.90;;;;;;5089700;28;20839;-66
2023/08/18 01:53:06;;;;;;;9.03;5.70;;;18.20;99.90;;;;;;5088644;28;20559;-66
2023/08/18 01:55:36;;;;;;;6.93;5.70;;;18.30;99.90;;;;;;5089662;28;20454;-66
2023/08/18 01:58:04;;;;;;;6.57;5.83;;;18.20;99.90;;;;;;5089404;28;20529;-66
2023/08/18 02:00:32;;;;;;;6.50;5.50;;;18.20;99.90;;;;;;5088795;28;20858;-66
2023/08/18 02:03:00;;;;;;;6.37;5.30;;;18.20;99.90;;;;;;5087333;28;20438;-66
2023/08/18 02:05:28;;;;;;;8.03;5.90;;;18.20;99.90;;;;;;5089162;28;20485;-66
2023/08/18 02:07:57;;;;;;;7.37;4.70;;;18.20;99.90;;;;;;5089597;28;20482;-66
2023/08/18 02:10:25;;;;;;;6.40;4.93;;;18.20;99.90;;;;;;5089424;28;20535;-66
2023/08/18 02:12:54;;;;;;;12.17;6.17;;;18.10;99.90;;;;;;5088698;28;20448;-66
2023/08/18 02:15:22;;;;;;;7.90;5.13;;;18.10;99.90;;;;;;5089385;28;20464;-66
2023/08/18 02:17:50;;;;;;;6.83;5.20;;;18.20;99.90;;;;;;5089533;28;20442;-67
2023/08/18 02:20:19;;;;;;;7.00;4.97;;;18.30;99.90;;;;;;5089179;28;20438;-67
2023/08/18 02:22:47;;;;;;;6.10;5.47;;;18.30;99.90;;;;;;5088264;28;20446;-67
2023/08/18 02:25:15;;;;;;;9.30;5.10;;;18.30;99.90;;;;;;5088951;28;20474;-66
2023/08/18 02:27:44;;;;;;;5.93;5.33;;;18.20;99.90;;;;;;5089811;28;20495;-66
2023/08/18 02:30:13;;;;;;;5.90;4.90;;;18.20;99.90;;;;;;5089717;28;20450;-67
2023/08/18 02:32:42;;;;;;;5.53;5.03;;;18.20;99.90;;;;;;5088561;28;20434;-65
2023/08/18 02:35:10;;;;;;;7.50;5.40;;;18.20;99.90;;;;;;5089443;28;21045;-66
2023/08/18 02:37:38;;;;;;;5.20;4.70;;;18.20;99.90;;;;;;5089254;28;20453;-67
2023/08/18 02:40:08;;;;;;;6.40;5.17;;;18.10;99.90;;;;;;5089684;28;20438;-67
2023/08/18 02:42:36;;;;;;;8.17;5.63;;;18.00;99.90;;;;;;5088524;28;20442;-67
2023/08/18 02:45:05;;;;;;;7.90;5.17;;;18.00;99.90;;;;;;5089196;28;20489;-66
2023/08/18 02:47:40;;;;;;;8.67;5.43;;;18.00;99.90;;;;;;5089358;28;20445;-67
2023/08/18 02:50:09;;;;;;;6.10;5.50;;;18.00;99.90;;;;;;5089096;28;20452;-67
2023/08/18 02:52:37;;;;;;;7.43;5.10;;;17.80;99.90;;;;;;5088144;28;20528;-67
2023/08/18 02:55:05;;;;;;;7.40;5.37;;;17.80;99.90;;;;;;5091566;28;20941;-68
2023/08/18 02:57:33;;;;;;;5.60;5.07;;;17.80;99.90;;;;;;5092862;28;20450;-67
2023/08/18 03:00:01;;;;;;;8.60;7.33;;;17.80;99.90;;;;;;5092706;28;21071;-68
2023/08/18 03:02:30;;;;;;;7.70;5.10;;;17.80;99.90;;;;;;5092034;28;20442;-67
2023/08/18 03:05:00;;;;;;;7.23;5.23;;;17.80;99.90;;;;;;5092467;28;20485;-65
2023/08/18 03:07:28;;;;;;;6.53;5.77;;;17.90;99.90;;;;;;5092509;28;20845;-67
2023/08/18 03:09:57;;;;;;;7.23;5.60;;;17.80;99.90;;;;;;5092045;28;20446;-67
2023/08/18 03:12:25;;;;;;;9.60;6.50;;;17.80;99.90;;;;;;5091644;28;20438;-67
2023/08/18 03:14:54;;;;;;;8.87;6.67;;;17.80;99.90;;;;;;5092164;28;20470;-67
2023/08/18 03:17:22;;;;;;;11.63;7.10;;;17.90;99.90;;;;;;5092323;28;20926;-67
2023/08/18 03:19:50;;;;;;;8.17;6.90;;;17.90;99.90;;;;;;5092187;28;20464;-67
2023/08/18 03:22:19;;;;;;;7.90;7.10;;;18.00;99.90;;;;;;5091828;28;20442;-67
2023/08/18 03:24:48;;;;;;;7.83;7.13;;;18.10;99.90;;;;;;5091582;28;20527;-67
2023/08/18 03:27:16;;;;;;;8.10;7.37;;;17.90;99.90;;;;;;5091690;28;20445;-67
2023/08/18 03:29:43;;;;;;;10.17;7.00;;;17.90;99.90;;;;;;5091893;28;20442;-68
2023/08/18 03:32:11;;;;;;;9.33;7.57;;;17.80;99.90;;;;;;5091684;28;20524;-67
2023/08/18 03:34:39;;;;;;;9.67;6.57;;;17.70;99.90;;;;;;5091050;28;20956;-67
2023/08/18 03:37:08;;;;;;;8.20;6.90;;;17.70;99.90;;;;;;5092014;28;20460;-67
2023/08/18 03:39:37;;;;;;;7.27;6.57;;;17.60;99.90;;;;;;5091831;28;21084;-67
2023/08/18 03:42:05;;;;;;;7.77;6.53;;;17.50;99.90;;;;;;5091222;28;20446;-65
2023/08/18 03:44:33;;;;;;;7.90;6.53;;;17.40;99.90;;;;;;5091590;28;20447;-66
2023/08/18 03:47:01;;;;;;;8.50;7.37;;;17.40;99.90;;;;;;5091978;28;20485;-67
2023/08/18 03:49:29;;;;;;;7.70;6.83;;;17.40;99.90;;;;;;5091813;28;20932;-67
2023/08/18 03:51:57;;;;;;;8.50;7.27;;;17.40;99.90;;;;;;5091533;28;20442;-67
2023/08/18 03:54:25;;;;;;;11.23;7.00;;;17.50;99.90;;;;;;5090282;28;20438;-67
2023/08/18 03:56:54;;;;;;;7.33;6.60;;;17.50;99.90;;;;;;5091446;28;20550;-67
2023/08/18 03:59:22;;;;;;;8.73;7.07;;;17.50;99.90;;;;;;5091641;28;20435;-68
2023/08/18 04:01:50;;;;;;;8.10;6.80;;;17.40;99.90;;;;;;5091565;28;20589;-67
2023/08/18 04:04:18;;;;;;;7.90;7.10;;;17.40;99.90;;;;;;5089921;28;20453;-67
2023/08/18 04:06:46;;;;;;;8.83;6.93;;;17.40;99.90;;;;;;5090627;28;20554;-67
2023/08/18 04:09:15;;;;;;;10.30;7.27;;;17.30;99.90;;;;;;5091132;28;20453;-66
2023/08/18 04:11:44;;;;;;;8.00;7.20;;;17.30;99.90;;;;;;5091425;28;20450;-67
2023/08/18 04:14:15;;;;;;;7.13;6.43;;;17.20;99.90;;;;;;5090169;28;20507;-66
2023/08/18 04:16:45;;;;;;;9.73;6.40;;;17.10;99.90;;;;;;5091232;28;20583;-67
2023/08/18 04:19:14;;;;;;;8.97;6.37;;;17.20;99.90;;;;;;5091287;28;20525;-66
2023/08/18 04:21:42;;;;;;;10.13;6.47;;;17.30;99.90;;;;;;5090692;28;20533;-67
2023/08/18 04:24:10;;;;;;;8.57;7.77;;;17.30;99.90;;;;;;5090284;28;20444;-67
2023/08/18 04:26:38;;;;;;;11.07;7.00;;;17.20;99.90;;;;;;5091427;28;20493;-67
2023/08/18 04:29:06;;;;;;;10.87;7.53;;;17.10;99.90;;;;;;5091394;28;20442;-67
2023/08/18 04:31:37;;;;;;;10.10;6.70;;;17.00;99.90;;;;;;5091365;28;20446;-66
2023/08/18 04:34:04;;;;;;;9.67;7.10;;;17.10;99.90;;;;;;5090173;28;20448;-66
2023/08/18 04:36:33;;;;;;;8.30;7.07;;;17.00;99.90;;;;;;5090756;28;20466;-66
2023/08/18 04:39:01;;;;;;;8.33;7.30;;;17.00;99.90;;;;;;5091290;28;20447;-66
2023/08/18 04:41:29;;;;;;;7.77;6.97;;;17.00;99.90;;;;;;5090991;28;20870;-66
2023/08/18 04:43:57;;;;;;;8.10;7.30;;;16.90;99.90;;;;;;5089443;28;20791;-66
2023/08/18 04:46:25;;;;;;;11.13;8.23;;;16.90;99.90;;;;;;5090572;28;20478;-67
2023/08/18 04:48:55;;;;;;;8.33;7.13;;;16.90;99.90;;;;;;5090304;28;20448;-67
2023/08/18 04:51:23;;;;;;;7.77;6.97;;;17.00;99.90;;;;;;5090676;28;20434;-67
2023/08/18 04:53:51;;;;;;;11.33;7.30;;;17.00;99.90;;;;;;5089448;28;20438;-66
2023/08/18 04:56:19;;;;;;;8.27;7.40;;;17.10;99.90;;;;;;5090381;28;20520;-66
2023/08/18 04:58:47;;;;;;;8.00;7.20;;;17.10;99.90;;;;;;5090296;28;20869;-67
2023/08/18 05:01:15;;;;;;;9.60;7.47;;;17.10;99.90;;;;;;5090261;28;20442;-66
2023/08/18 05:03:43;;;;;;;8.83;7.30;;;17.20;99.90;;;;;;5089475;28;20446;-67
2023/08/18 05:06:13;;;;;;;8.80;7.77;;;17.20;99.90;;;;;;5090003;28;20478;-67
2023/08/18 05:08:41;;;;;;;8.43;6.50;;;17.20;99.90;;;;;;5090282;28;21046;-67
2023/08/18 05:11:10;;;;;;;10.13;7.50;;;17.10;99.90;;;;;;5090332;28;20438;-67
2023/08/18 05:13:39;;;;;;;8.30;6.63;;;17.20;99.90;;;;;;5089026;28;20438;-67
2023/08/18 05:16:07;;;;;;;8.63;6.43;;;17.20;99.90;;;;;;5089980;28;20864;-67
2023/08/18 05:18:36;;;;;;;9.10;6.50;;;17.40;99.90;;;;;;5089424;28;20507;-66
2023/08/18 05:21:04;;;;;;;7.30;6.20;;;17.50;99.90;;;;;;5090088;28;20441;-67
2023/08/18 05:23:34;;;;;;;8.40;6.30;;;17.50;99.90;;;;;;5088867;28;20454;-67
2023/08/18 05:26:02;;;;;;;7.90;7.10;;;17.50;99.90;;;;;;5089877;28;20844;-66
2023/08/18 05:28:32;;;;;;;6.63;5.70;;;17.60;99.90;;;;;;5089915;28;20483;-67
2023/08/18 05:31:00;;;;;;;7.13;5.63;;;17.60;99.90;;;;;;5090193;28;20529;-67
2023/08/18 05:33:29;;;;;;;8.23;5.87;;;17.60;99.90;;;;;;5088914;28;20442;-67
2023/08/18 05:35:59;;;;;;;6.00;5.40;;;17.70;99.90;;;;;;5089697;28;21152;-67
2023/08/18 05:38:27;;;;;;;6.27;5.57;;;17.70;99.90;;;;;;5089516;28;20446;-66
2023/08/18 05:41:04;;;;;;;7.37;5.70;;;17.80;99.90;;;;;;5089733;28;20442;-67
2023/08/18 05:43:37;;;;;;;6.40;5.80;;;17.90;99.90;;;;;;5088994;28;20849;-67
2023/08/18 05:46:06;;;;;;;7.17;5.80;;;17.90;99.90;;;;;;5089832;28;20973;-67
2023/08/18 05:48:34;;;;;;;8.63;6.20;;;17.90;99.90;;;;;;5089871;28;20449;-66
2023/08/18 05:51:03;;;;;;;5.90;5.27;;;18.00;99.90;;;;;;5089601;28;20452;-67
2023/08/18 05:53:31;;;;;;;8.17;5.10;;;18.10;99.90;;;;;;5088559;28;20500;-67
2023/08/18 05:56:01;;;;;;;6.13;5.53;;;18.10;99.90;;;;;;5089642;28;20473;-67
2023/08/18 05:58:29;;;;;;;7.97;5.00;;;18.20;99.90;;;;;;5089872;28;20523;-67
2023/08/18 06:00:57;;;;;;;5.30;4.80;;;18.30;99.90;;;;;;5089904;28;20446;-67
2023/08/18 06:03:25;;;;;;;6.03;5.10;;;18.40;99.90;;;;;;5088952;28;20587;-68
2023/08/18 06:05:53;;;;;;;5.67;5.07;;;18.50;99.90;;;;;;5087640;28;20470;-66
2023/08/18 06:08:20;;;;;;;9.10;5.63;;;18.60;99.90;;;;;;5088503;28;20442;-67
2023/08/18 06:10:48;;;;;;;8.37;5.30;;;18.70;99.90;;;;;;5089717;28;20439;-67
2023/08/18 06:13:18;;;;;;;6.50;5.90;;;18.90;99.90;;;;;;5088166;28;20477;-67
2023/08/18 06:15:46;;;;;;;7.03;5.43;;;18.90;99.90;;;;;;5089539;28;20458;-67
2023/08/18 06:18:13;;;;;;;6.33;5.60;;;19.00;99.90;;;;;;5089570;28;20944;-67
2023/08/18 06:20:41;;;;;;;6.53;5.40;;;19.10;99.90;;;;;;5089377;28;20517;-67
2023/08/18 06:23:09;;;;;;;6.00;4.37;;;19.20;99.90;;;;;;5088546;28;20500;-67
2023/08/18 06:25:37;;;;;;;5.80;4.50;;;19.30;99.90;;;;;;5089642;28;20454;-66
2023/08/18 06:28:07;;;;;;;5.80;4.60;;;19.30;99.90;;;;;;5089861;28;20470;-67
2023/08/18 06:30:36;;;;;;;5.83;4.30;;;19.30;99.90;;;;;;5093449;28;20442;-67
2023/08/18 06:33:04;;;;;;;5.53;4.80;;;19.40;99.90;;;;;;5092365;28;20491;-67
2023/08/18 06:35:32;;;;;;;5.70;4.30;;;19.50;99.90;;;;;;5093181;28;21094;-68
2023/08/18 06:38:00;;;;;;;5.40;4.00;;;19.50;99.90;;;;;;5092262;28;20438;-67
2023/08/18 06:40:28;;;;;;;5.83;4.70;;;19.60;99.90;;;;;;5093282;28;20877;-67
2023/08/18 06:42:56;;;;;;;6.83;4.20;;;19.60;99.90;;;;;;5091821;28;21002;-67
2023/08/18 06:45:24;;;;;;;4.00;3.60;;;19.70;99.90;;;;;;5092896;28;20460;-66
2023/08/18 06:47:53;;;;;;;4.73;4.10;;;19.90;99.90;;;;;;5092840;28;20903;-68
2023/08/18 06:50:21;;;;;;;5.47;4.37;;;19.90;99.90;;;;;;5093128;28;20537;-67
2023/08/18 06:52:49;;;;;;;6.43;4.43;;;20.10;99.90;;;;;;5091438;28;20950;-68
2023/08/18 06:55:17;;;;;;;5.03;3.20;;;20.20;99.90;;;;;;5092630;28;21071;-67
2023/08/18 06:57:57;;;;;;;4.00;3.60;;;20.20;99.90;;;;;;5092660;28;21131;-67
2023/08/18 07:00:25;;;;;;;4.07;3.67;;;20.50;99.90;;;;;;5092663;28;20449;-67
2023/08/18 07:02:54;;;;;;;7.10;4.07;;;20.60;99.90;;;;;;5091412;28;20442;-67
2023/08/18 07:05:24;;;;;;;5.17;3.73;;;20.70;99.90;;;;;;5092707;28;20822;-67
2023/08/18 07:07:54;;;;;;;5.00;3.70;;;20.80;99.90;;;;;;5092493;28;20477;-68
2023/08/18 07:10:22;;;;;;;4.90;3.97;;;20.90;99.90;;;;;;5092231;28;20454;-68
2023/08/18 07:12:50;;;;;;;4.50;3.33;;;21.00;99.90;;;;;;5091400;28;20491;-67
2023/08/18 07:15:18;;;;;;;5.70;4.33;;;21.20;99.90;;;;;;5092211;28;20458;-67
2023/08/18 07:17:46;;;;;;;5.90;3.90;;;21.30;99.90;;;;;;5092397;28;20440;-67
2023/08/18 07:20:15;;;;;;;5.83;3.70;;;21.40;99.90;;;;;;5092430;28;20442;-67
2023/08/18 07:22:43;;;;;;;4.63;3.70;;;21.50;99.90;;;;;;5091161;28;20446;-67
2023/08/18 07:25:11;;;;;;;4.93;3.73;;;21.60;99.90;;;;;;5092096;28;20458;-67
2023/08/18 07:27:39;;;;;;;5.77;4.20;;;21.70;99.90;;;;;;5091665;28;20551;-67
2023/08/18 07:30:08;;;;;;;4.20;3.50;;;21.80;99.90;;;;;;5092262;28;20443;-68
2023/08/18 07:32:40;;;;;;;5.63;3.87;;;21.90;99.90;;;;;;5090818;28;20432;-67
2023/08/18 07:35:09;;;;;;;6.63;3.80;;;22.00;99.90;;;;;;5091836;28;20469;-67
2023/08/18 07:37:39;;;;;;;4.10;3.43;;;22.10;99.90;;;;;;5091883;28;20864;-68
2023/08/18 07:40:10;;;;;;;6.47;3.67;;;22.30;99.90;;;;;;5028056;28;20445;-68
2023/08/18 07:42:39;;;;;;;5.90;3.50;;;22.40;99.90;;;;;;5027521;28;20481;-67
2023/08/18 07:45:08;;;;;;;6.00;3.57;;;22.50;99.90;;;;;;5028773;28;20457;-67
2023/08/18 07:47:37;;;;;;;4.83;3.87;;;22.60;99.90;;;;;;5028791;28;20635;-67
2023/08/18 07:50:07;;;;;;;5.33;3.50;;;22.80;99.90;;;;;;5028891;28;20448;-67
2023/08/18 07:52:36;;;;;;;6.77;3.57;;;22.80;99.90;;;;;;5027635;28;20461;-67
2023/08/18 07:55:07;;;;;;;4.13;3.53;;;23.00;99.90;;;;;;5028754;28;20471;-67
2023/08/18 07:57:36;;;;;;;4.40;3.33;;;23.10;99.90;;;;;;5035813;28;20446;-68
2023/08/18 08:00:08;;;;;;;5.47;3.63;;;23.20;99.90;;;;;;5071426;28;20443;-67
2023/08/18 08:02:37;;;;;;;5.00;3.80;;;23.30;99.90;;;;;;5068987;28;20516;-67
2023/08/18 08:05:06;;;;;;;4.27;3.60;;;23.50;99.90;;;;;;5081161;28;20299;-68
2023/08/18 08:07:35;;;;;;;5.63;3.40;;;23.50;99.90;;;;;;5091695;28;20478;-68
2023/08/18 08:10:05;;;;;;;6.60;3.63;;;23.60;99.90;;;;;;5091316;28;20512;-68
2023/08/18 08:12:35;;;;;;;5.53;3.30;;;23.70;99.90;;;;;;5090319;28;20491;-68
2023/08/18 08:15:03;;;;;;;4.47;3.53;;;23.80;99.90;;;;;;5091325;28;20548;-68
2023/08/18 08:17:32;;;;;;;4.97;3.50;;;24.00;99.90;;;;;;5091639;28;20517;-67
2023/08/18 08:20:01;;;;;;;3.40;3.10;;;24.10;99.90;;;;;;5091683;28;20437;-67
2023/08/18 08:22:29;;;;;;;4.47;4.07;;;24.20;99.90;;;;;;5089586;28;20446;-68
2023/08/18 08:24:57;;;;;;;5.10;3.57;;;24.30;99.90;;;;;;5092499;28;20454;-68
2023/08/18 08:27:26;;;;;;;4.83;3.00;;;24.30;99.90;;;;;;5091846;28;20467;-67
2023/08/18 08:29:54;;;;;;;3.63;3.20;;;24.60;99.90;;;;;;5091475;28;20496;-67
2023/08/18 08:32:22;;;;;;;7.20;3.73;;;24.90;99.90;;;;;;5090226;28;20466;-66
2023/08/18 08:34:51;;;;;;;4.70;3.30;;;25.00;99.90;;;;;;5091132;28;20474;-65
2023/08/18 08:37:19;;;;;;;5.07;3.63;;;24.90;99.90;;;;;;5091091;28;20492;-67
2023/08/18 08:39:47;;;;;;;4.50;2.90;;;24.90;99.90;;;;;;5091257;28;20947;-67
2023/08/18 08:42:15;;;;;;;4.53;3.47;;;25.00;99.90;;;;;;5090642;28;20457;-65
2023/08/18 08:44:45;;;;;;;4.67;3.27;;;25.20;99.90;;;;;;5089897;28;20445;-67
2023/08/18 08:47:12;;;;;;;6.47;3.33;;;25.30;99.90;;;;;;5090629;28;20453;-68
2023/08/18 08:49:47;;;;;;;3.70;2.67;;;25.40;99.90;;;;;;5090676;28;20426;-67
2023/08/18 08:52:16;;;;;;;6.33;3.10;;;25.50;99.90;;;;;;5089951;28;20430;-68
2023/08/18 08:54:50;;;;;;;4.27;2.90;;;25.70;99.90;;;;;;5089217;28;20504;-67
2023/08/18 08:57:23;;;;;;;4.67;2.80;;;25.90;99.90;;;;;;5090372;28;21199;-67
2023/08/18 08:59:52;;;;;;;4.20;3.70;;;26.00;99.90;;;;;;5090324;28;20932;-65
2023/08/18 09:02:21;;;;;;;4.87;3.37;;;26.10;99.90;;;;;;5090014;28;20442;-67
2023/08/18 09:04:49;;;;;;;5.00;3.63;;;26.30;99.90;;;;;;5090176;28;20435;-68
2023/08/18 09:07:17;;;;;;;4.20;2.73;;;26.40;99.90;;;;;;5089803;28;20438;-68
2023/08/18 09:09:45;;;;;;;3.63;2.93;;;26.50;99.90;;;;;;5089945;28;20478;-68
2023/08/18 09:12:13;;;;;;;3.27;2.80;;;26.50;99.90;;;;;;5089899;28;20454;-67
2023/08/18 09:14:43;;;;;;;5.53;2.70;;;26.60;99.90;;;;;;5089666;28;20504;-67
2023/08/18 09:17:13;;;;;;;5.70;3.37;;;26.80;99.90;;;;;;5090316;28;20519;-67
2023/08/18 09:19:41;;;;;;;4.30;2.77;;;27.00;99.90;;;;;;5089856;28;20442;-67
2023/08/18 09:22:10;;;;;;;4.63;2.60;;;27.20;99.90;;;;;;5089425;28;20850;-67
2023/08/18 09:24:38;;;;;;;4.70;2.70;;;27.40;99.90;;;;;;5089259;28;20457;-66
2023/08/18 09:27:06;;;;;;;4.33;3.10;;;27.60;99.90;;;;;;5089839;28;20443;-67
2023/08/18 09:29:35;;;;;;;5.87;2.90;;;27.80;99.90;;;;;;5089880;28;20521;-68
2023/08/18 09:32:03;;;;;;;4.10;2.70;;;27.90;99.60;;;;;;5089893;28;20492;-67
2023/08/18 09:34:37;;;;;;;3.27;2.63;;;27.90;98.20;;;;;;5088962;28;20892;-68
2023/08/18 09:37:05;;;;;;;3.87;3.07;;;28.00;99.20;;;;;;5089766;28;20446;-67
2023/08/18 09:39:33;;;;;;;2.97;2.43;;;28.30;99.90;;;;;;5089807;28;20446;-68
2023/08/18 09:42:08;;;;;;;4.30;3.17;;;28.70;99.90;;;;;;5089531;28;21035;-68
2023/08/18 09:44:36;;;;;;;3.70;3.27;;;29.60;96.20;;;;;;5088984;28;20446;-68
2023/08/18 09:47:06;;;;;;;5.10;2.63;;;30.10;94.60;;;;;;5089703;28;20452;-67
2023/08/18 09:49:40;;;;;;;6.27;3.50;;;30.70;92.70;;;;;;5090090;28;20535;-67
2023/08/18 09:52:14;;;;;;;3.33;2.80;;;31.00;90.30;;;;;;5089050;28;20453;-67
2023/08/18 09:54:50;;;;;;;3.77;2.60;;;31.30;89.80;;;;;;5089158;28;20435;-68
2023/08/18 09:57:26;;;;;;;6.57;2.83;;;31.20;90.00;;;;;;5089425;28;20860;-67
2023/08/18 09:59:56;;;;;;;4.00;3.40;;;31.30;91.60;;;;;;5089846;28;20469;-66
2023/08/18 10:02:29;;;;;;;5.17;2.50;;;32.00;80.90;;;;;;5088779;28;20502;-63
2023/08/18 10:04:59;;;;;;;3.97;2.70;;;31.90;79.60;;;;;;5092426;28;20461;-67
2023/08/18 10:07:28;;;;;;;3.80;3.13;;;32.10;78.40;;;;;;5093788;28;20979;-66
2023/08/18 10:09:57;;;;;;;3.50;3.13;;;32.20;77.10;;;;;;5093440;28;20988;-67
2023/08/18 10:12:25;;;;;;;5.27;2.80;;;32.20;75.90;;;;;;5092535;28;20854;-65
2023/08/18 10:14:56;;;;;;;2.90;2.57;;;32.40;75.10;;;;;;5093743;28;20862;-66
2023/08/18 10:17:24;;;;;;;4.63;2.50;;;32.60;73.90;;;;;;5093901;28;20446;-67
2023/08/18 10:19:54;;;;;;;3.27;2.63;;;32.60;76.30;;;;;;5093563;28;20442;-67
2023/08/18 10:22:26;;;;;;;5.47;2.80;;;32.70;74.90;;;;;;5072768;28;20451;-66
2023/08/18 10:24:55;;;;;;;3.03;2.50;;;32.80;71.00;;;;;;5073633;28;20504;-67
2023/08/18 10:27:36;;;;;;;4.20;2.40;;;32.90;70.50;;;;;;5073656;28;20445;-67
2023/08/18 10:30:25;;;;;;;4.90;2.57;;;33.00;66.90;;;;;;5073151;28;20482;-67
2023/08/18 10:32:54;;;;;;;4.67;2.60;;;33.00;72.10;;;;;;5071791;28;20516;-70
2023/08/18 10:35:23;;;;;;;3.23;2.50;;;33.30;72.40;;;;;;5078365;28;20472;-67
2023/08/18 10:37:54;;;;;;;5.97;3.07;;;33.20;66.90;;;;;;5093528;28;20433;-67
2023/08/18 10:40:24;;;;;;;4.87;3.03;;;33.40;67.80;;;;;;5093444;28;20966;-66
2023/08/18 10:42:53;;;;;;;4.80;2.67;;;33.60;66.00;;;;;;5091989;28;20522;-66
2023/08/18 10:45:26;;;;;;;3.67;3.20;;;33.60;64.20;;;;;;5093094;28;20550;-67
2023/08/18 10:47:57;;;;;;;3.60;2.37;;;33.40;64.20;;;;;;5093222;28;20473;-66
2023/08/18 10:50:28;;;;;;;4.50;3.27;;;33.70;63.60;;;;;;5092808;28;20517;-66
2023/08/18 10:52:57;;;;;;;3.77;2.70;;;33.60;63.90;;;;;;5091754;28;20541;-67
2023/08/18 10:55:26;;;;;;;4.20;2.60;;;34.20;62.90;;;;;;5092808;28;20466;-66
2023/08/18 10:57:54;;;;;;;4.20;2.70;;;34.60;59.90;;;;;;5092710;28;20563;-66
2023/08/18 11:00:22;;;;;;;3.63;2.57;;;34.90;59.60;;;;;;5092632;28;20844;-67
2023/08/18 11:02:52;;;;;;;4.30;2.43;;;34.90;62.80;;;;;;5091842;28;20876;-66
2023/08/18 11:05:23;;;;;;;3.27;2.30;;;35.30;61.50;;;;;;5092427;28;20455;-66
2023/08/18 11:07:53;;;;;;;5.53;2.80;;;35.60;57.20;;;;;;5093179;28;20850;-65
2023/08/18 11:10:24;;;;;;;3.70;2.40;;;35.80;54.10;;;;;;5092511;28;20565;-68
2023/08/18 11:12:54;;;;;;;3.07;2.40;;;35.60;60.20;;;;;;5091559;28;20434;-67
2023/08/18 11:15:24;;;;;;;3.70;2.33;;;35.80;53.70;;;;;;5092633;28;20460;-68
2023/08/18 11:17:53;;;;;;;2.87;2.10;;;36.00;55.30;;;;;;5092533;28;20495;-67
2023/08/18 11:20:21;;;;;;;2.60;1.90;;;36.20;53.40;;;;;;5092166;28;20533;-66
2023/08/18 11:22:51;;;;;;;3.50;2.20;;;36.60;51.20;;;;;;5091076;28;20515;-67
2023/08/18 11:25:21;;;;;;;3.90;2.30;;;36.80;51.50;;;;;;5092408;28;20466;-67
2023/08/18 11:27:52;;;;;;;3.23;2.40;;;36.70;50.60;;;;;;5092306;28;20975;-66
2023/08/18 11:30:21;;;;;;;3.77;1.90;;;36.60;48.70;;;;;;5092343;28;20527;-67
2023/08/18 11:32:49;;;;;;;2.90;1.87;;;36.50;50.20;;;;;;5090734;28;20998;-66
2023/08/18 11:35:19;;;;;;;2.97;1.80;;;36.70;46.90;;;;;;5092063;28;20559;-67
2023/08/18 11:37:49;;;;;;;4.03;2.37;;;37.20;47.60;;;;;;5092320;28;20507;-67
2023/08/18 11:40:19;;;;;;;3.47;2.37;;;37.40;50.90;;;;;;5092215;28;20438;-65
2023/08/18 11:42:48;;;;;;;2.67;2.00;;;37.80;45.60;;;;;;5090773;28;20532;-67
2023/08/18 11:45:19;;;;;;;3.23;1.90;;;37.90;49.50;;;;;;5091941;28;20462;-67
2023/08/18 11:47:49;;;;;;;3.53;2.43;;;37.70;50.90;;;;;;5091838;28;20485;-68
2023/08/18 11:50:20;;;;;;;3.17;2.10;;;37.90;47.60;;;;;;5091183;28;20505;-67
2023/08/18 11:52:52;;;;;;;4.63;2.47;;;38.30;48.20;;;;;;5090692;28;20449;-67
2023/08/18 11:55:31;;;;;;;5.00;2.80;;;38.90;47.60;;;;;;5091832;28;20619;-68
2023/08/18 11:58:04;;;;;;;3.33;2.23;;;39.40;46.20;;;;;;5091588;28;20954;-67
2023/08/18 12:00:36;;;;;;;3.23;2.00;;;39.60;42.60;;;;;;5091572;28;20440;-67
2023/08/18 12:03:05;;;;;;;4.57;2.00;;;39.70;43.50;;;;;;5090166;28;20502;-67
2023/08/18 12:05:37;;;;;;;3.03;2.00;;;40.00;41.00;;;;;;5091618;28;20557;-67
2023/08/18 12:08:09;;;;;;;2.40;1.70;;;40.20;42.30;;;;;;5091701;28;20491;-67
2023/08/18 12:10:38;;;;;;;2.70;1.97;;;40.00;42.80;;;;;;5091420;28;20508;-67
2023/08/18 12:13:05;;;;;;;2.60;2.00;;;39.80;39.70;;;;;;5090407;28;20451;-68
2023/08/18 12:15:35;;;;;;;4.80;2.30;;;40.20;44.10;;;;;;5091617;28;20469;-67
2023/08/18 12:18:03;;;;;;;2.90;1.83;;;40.50;42.20;;;;;;5091830;28;20849;-67
2023/08/18 12:20:32;;;;;;;4.33;2.17;;;40.80;39.20;;;;;;5091639;28;21100;-67
2023/08/18 12:23:00;;;;;;;4.83;2.13;;;41.30;38.90;;;;;;5090535;28;20495;-66
2023/08/18 12:25:28;;;;;;;3.97;1.97;;;41.40;39.50;;;;;;5091614;28;20847;-68
2023/08/18 12:27:56;;;;;;;4.13;2.00;;;41.60;35.80;;;;;;5090781;28;20536;-68
2023/08/18 12:30:25;;;;;;;3.60;1.90;;;41.80;37.50;;;;;;5091145;28;20891;-68
2023/08/18 12:32:55;;;;;;;4.20;2.13;;;41.30;37.30;;;;;;5089689;28;20452;-67
2023/08/18 12:35:23;;;;;;;3.20;2.00;;;41.20;36.70;;;;;;5090924;28;20461;-67
2023/08/18 12:37:52;;;;;;;2.40;1.90;;;40.80;39.30;;;;;;5090838;28;20434;-68
2023/08/18 12:40:20;;;;;;;3.00;1.60;;;41.00;39.80;;;;;;5091068;28;20437;-67
2023/08/18 12:42:48;;;;;;;3.23;1.90;;;41.80;36.90;;;;;;5089934;28;20495;-67
2023/08/18 12:45:16;;;;;;;4.47;1.97;;;41.20;37.90;;;;;;5090866;28;20469;-67
2023/08/18 12:47:44;;;;;;;4.60;1.90;;;41.20;34.10;;;;;;5090655;28;20503;-67
2023/08/18 12:50:13;;;;;;;3.30;1.90;;;41.20;35.90;;;;;;5090430;28;20503;-67
2023/08/18 12:52:42;;;;;;;3.33;1.80;;;41.70;37.50;;;;;;5089382;28;20452;-67
2023/08/18 12:55:10;;;;;;;4.57;1.60;;;42.30;38.50;;;;;;5090665;28;20805;-68